Terminal Aerodrome Forecast
Issued by NWS Atlanta, GA

Home | Current Version | Previous Version | Text Only | Print | Product List | Glossary On
Versions: 1 2 3 4 5 6 7 8 9 10 11 12 13 14 15 16 17 18 19 20 21 22 23 24 25 26 27 28 29 30 31 32 33 34 35 36 37 38 39 40 41
000
FTUS42 KFFC 290131 AAA
TAFATL
TAF AMD
KATL 290131Z 2902/3006 09004KT P6SM VCSH SCT015 SCT090 OVC120
     FM290300 VRB03KT P6SM FEW008 SCT015 BKN120
     FM290900 10003KT 5SM BR SCT008 BKN015
     FM291500 14005KT P6SM BKN025
     FM291800 13006KT P6SM SCT035 PROB30 2919/2922 5SM TSRA BKN025CB
     FM300200 13005KT P6SM FEW040 SCT120=

USA.gov is the U.S. government's official web portal to all federal, state and local government web resources and services.